Saint Thomas, North Dakota
Current Conditions -  °F | °C
As of 2:35 AM on Friday 28 Nov 2014 (Local Time) from K2C8 Reporting Station
Overcast Overcast  
Wind Chill:   Ceiling: 3100
Heat Index:   Visibility: 10mi
Dew Point:   Wind: 5mph
Humidity: 85%   Direction: 140°SE
Pressure: 30.07"   Gusts: NA
Location:  48.62°N, 97.45°W
Report Text: K2C8 280835Z AUTO 14004KT 10SM FEW002 BKN031 OVC042 M13/M15 A3007 RMK AO2
Loading
Personal Weather Stations






























Interactive Weather Map New forecast layout! Learn more

10-Day Weather Forecast

Advertisements
Track Severe Weather on mobile